createdAt,value
2018-07-21T00:00:40.392Z,57.53
2018-07-21T00:03:10.295Z,57.45
2018-07-21T00:05:40.162Z,56.74
2018-07-21T00:08:09.933Z,57.25
2018-07-21T00:10:39.859Z,57.26
2018-07-21T00:13:09.735Z,57.59
2018-07-21T00:15:39.502Z,56.98
2018-07-21T00:18:15.886Z,58.62
2018-07-21T00:20:45.747Z,58.18
2018-07-21T00:23:15.683Z,58.45
2018-07-21T00:25:45.473Z,58.48
2018-07-21T00:28:15.303Z,59.05
2018-07-21T00:30:45.228Z,59.01
2018-07-21T00:33:15.165Z,58.86
2018-07-21T00:35:44.923Z,58.75
2018-07-21T00:38:14.656Z,58.72
2018-07-21T00:40:44.499Z,59.05
2018-07-21T00:43:14.296Z,58.38
2018-07-21T00:45:44.107Z,57.91
2018-07-21T00:48:13.896Z,58.37
2018-07-21T00:50:43.860Z,58.65
2018-07-21T00:53:13.716Z,58.61
2018-07-21T00:55:43.672Z,59.15
2018-07-21T00:58:13.516Z,59.59
2018-07-21T01:00:43.472Z,59.02
2018-07-21T01:03:13.333Z,59.60
2018-07-21T01:05:43.187Z,59.40
2018-07-21T01:08:12.979Z,59.34
2018-07-21T01:10:42.787Z,59.09
2018-07-21T01:13:12.631Z,59.23
2018-07-21T01:15:42.544Z,59.49
2018-07-21T01:18:12.435Z,58.84
2018-07-21T01:20:42.251Z,58.82
2018-07-21T01:23:12.138Z,58.35
2018-07-21T01:25:42.062Z,58.99
2018-07-21T01:28:11.924Z,58.93
2018-07-21T01:30:41.946Z,59.07
2018-07-21T01:33:11.860Z,58.82
2018-07-21T01:35:41.643Z,58.81
2018-07-21T01:38:11.556Z,58.91
2018-07-21T01:40:41.352Z,58.73
2018-07-21T01:43:11.170Z,58.31
2018-07-21T01:45:41.034Z,57.83
2018-07-21T01:48:10.850Z,58.57
2018-07-21T01:50:40.660Z,57.85
2018-07-21T01:53:10.535Z,58.39
2018-07-21T01:55:40.358Z,58.09
2018-07-21T01:58:10.175Z,57.87
2018-07-21T02:00:40.044Z,58.29
2018-07-21T02:03:09.923Z,58.53
2018-07-21T02:05:39.780Z,58.61
2018-07-21T02:08:09.671Z,58.83
2018-07-21T02:10:39.565Z,59.22
2018-07-21T02:13:09.380Z,59.30
2018-07-21T02:15:39.175Z,60.04
2018-07-21T02:18:09.159Z,60.04
2018-07-21T02:20:38.956Z,60.27
2018-07-21T02:23:08.783Z,61.36
2018-07-21T02:25:38.710Z,60.91
2018-07-21T02:28:08.605Z,61.24
2018-07-21T02:30:38.458Z,62.00
2018-07-21T02:33:08.380Z,61.38
2018-07-21T02:35:38.396Z,61.69
2018-07-21T02:38:08.256Z,61.19
2018-07-21T02:40:38.036Z,61.80
2018-07-21T02:43:07.877Z,62.13
2018-07-21T02:45:37.772Z,61.35
2018-07-21T02:48:07.667Z,61.46
2018-07-21T02:50:37.463Z,61.82
2018-07-21T02:53:07.345Z,61.55
2018-07-21T02:55:37.300Z,61.99
2018-07-21T02:58:07.112Z,62.74
2018-07-21T03:00:36.935Z,62.43
2018-07-21T03:03:06.793Z,63.06
2018-07-21T03:05:36.672Z,62.64
2018-07-21T03:08:06.688Z,62.87
2018-07-21T03:10:36.565Z,62.49
2018-07-21T03:13:06.396Z,63.01
2018-07-21T03:15:36.279Z,62.66
2018-07-21T03:18:06.119Z,63.24
2018-07-21T03:20:35.944Z,62.77
2018-07-21T03:23:05.869Z,62.46
2018-07-21T03:25:36.762Z,62.46
2018-07-21T03:28:06.716Z,63.12
2018-07-21T03:30:36.585Z,62.63
2018-07-21T03:33:06.691Z,62.80
2018-07-21T03:35:36.459Z,62.70
2018-07-21T03:38:06.520Z,62.07
2018-07-21T03:40:36.427Z,62.88
2018-07-21T03:43:06.277Z,62.41
2018-07-21T03:45:36.101Z,62.48
2018-07-21T03:48:06.019Z,63.00
2018-07-21T03:50:35.871Z,62.82
2018-07-21T03:53:06.085Z,62.75
2018-07-21T03:55:35.907Z,63.22
2018-07-21T03:58:05.758Z,63.09
2018-07-21T04:00:35.615Z,63.42
2018-07-21T04:03:05.452Z,61.96
2018-07-21T04:05:35.445Z,62.53
2018-07-21T04:08:05.302Z,62.28
2018-07-21T04:10:35.190Z,62.29
2018-07-21T04:13:05.065Z,61.95
2018-07-21T04:15:34.907Z,63.35
2018-07-21T04:18:04.749Z,65.32
2018-07-21T04:20:34.568Z,64.98
2018-07-21T04:23:04.503Z,67.26
2018-07-21T04:25:34.335Z,65.48
2018-07-21T04:28:04.236Z,65.10
2018-07-21T04:30:34.037Z,63.82
2018-07-21T04:33:03.846Z,63.57
2018-07-21T04:35:33.722Z,63.30
2018-07-21T04:38:03.547Z,62.74
2018-07-21T04:40:33.338Z,62.58
2018-07-21T04:43:03.163Z,62.03
2018-07-21T04:45:33.044Z,61.96
2018-07-21T04:48:02.883Z,62.52
2018-07-21T04:50:32.712Z,62.39
2018-07-21T04:53:02.591Z,61.76
2018-07-21T04:55:32.501Z,61.99
2018-07-21T04:58:02.416Z,61.55
2018-07-21T05:00:32.231Z,61.25
2018-07-21T05:03:02.012Z,61.49
2018-07-21T05:05:31.815Z,61.72
2018-07-21T05:08:01.707Z,62.55
2018-07-21T05:10:31.508Z,62.49
2018-07-21T05:13:01.405Z,63.14
2018-07-21T05:15:31.178Z,63.75
2018-07-21T05:18:00.964Z,63.09
2018-07-21T05:20:30.837Z,63.35
2018-07-21T05:23:00.851Z,61.81
2018-07-21T05:25:30.729Z,61.64
2018-07-21T05:28:00.543Z,61.99
2018-07-21T05:30:30.425Z,60.13
2018-07-21T05:33:00.321Z,59.08
2018-07-21T05:35:30.232Z,58.48
2018-07-21T05:38:00.066Z,57.75
2018-07-21T05:40:29.968Z,56.89
2018-07-21T05:42:59.812Z,55.24
2018-07-21T05:45:29.676Z,54.22
2018-07-21T05:47:59.588Z,54.83
2018-07-21T05:50:29.501Z,53.43
2018-07-21T05:52:59.459Z,53.46
2018-07-21T05:55:29.383Z,52.88
2018-07-21T05:57:59.307Z,52.06
2018-07-21T06:00:29.136Z,51.73
2018-07-21T06:02:59.020Z,52.55
2018-07-21T06:05:28.928Z,52.98
2018-07-21T06:07:58.720Z,52.03
2018-07-21T06:10:28.513Z,52.43
2018-07-21T06:12:58.312Z,52.08
2018-07-21T06:15:28.117Z,50.97
2018-07-21T06:17:57.989Z,51.52
2018-07-21T06:20:27.854Z,52.04
2018-07-21T06:22:57.716Z,52.06
2018-07-21T06:25:27.503Z,52.02
2018-07-21T06:27:57.770Z,52.42
2018-07-21T06:30:27.799Z,50.92
2018-07-21T06:32:58.046Z,51.92
2018-07-21T06:35:28.107Z,52.97
2018-07-21T06:37:58.039Z,51.45
2018-07-21T06:40:27.871Z,51.97
2018-07-21T06:42:57.748Z,50.70
2018-07-21T06:45:27.628Z,51.96
2018-07-21T06:47:57.463Z,52.80
2018-07-21T06:50:27.331Z,50.88
2018-07-21T06:52:57.257Z,49.85
2018-07-21T06:55:27.131Z,48.96
2018-07-21T06:57:56.951Z,49.09
2018-07-21T07:00:26.835Z,49.21
2018-07-21T07:02:56.633Z,48.69
2018-07-21T07:05:26.557Z,50.02
2018-07-21T07:07:56.444Z,49.79
2018-07-21T07:10:26.352Z,48.39
2018-07-21T07:12:56.204Z,50.37
2018-07-21T07:15:26.094Z,50.58
2018-07-21T07:17:55.863Z,49.88
2018-07-21T07:20:25.647Z,49.08
2018-07-21T07:22:55.571Z,48.83
2018-07-21T07:25:25.314Z,48.42
2018-07-21T07:27:55.076Z,47.56
2018-07-21T07:30:24.859Z,48.58
2018-07-21T07:32:54.811Z,48.31
2018-07-21T07:35:24.652Z,47.55
2018-07-21T07:37:54.569Z,47.27
2018-07-21T07:40:24.480Z,46.38
2018-07-21T07:42:54.374Z,46.66
2018-07-21T07:45:24.255Z,46.77
2018-07-21T07:47:54.313Z,45.84
2018-07-21T07:50:24.218Z,45.10
2018-07-21T07:52:54.141Z,46.09
2018-07-21T07:55:24.051Z,46.30
2018-07-21T07:57:53.847Z,44.91
2018-07-21T08:00:23.773Z,44.59
2018-07-21T08:02:53.590Z,44.39
2018-07-21T08:05:23.593Z,45.18
2018-07-21T08:07:53.491Z,43.96
2018-07-21T08:10:23.335Z,44.60
2018-07-21T08:12:53.416Z,44.67
2018-07-21T08:15:23.663Z,43.81
2018-07-21T08:17:53.546Z,44.98
2018-07-21T08:20:23.412Z,43.85
2018-07-21T08:22:53.253Z,44.29
2018-07-21T08:25:23.115Z,44.16
2018-07-21T08:27:52.955Z,44.07
2018-07-21T08:30:22.822Z,45.20
2018-07-21T08:32:52.630Z,44.33
2018-07-21T08:35:22.447Z,43.65
2018-07-21T08:37:52.363Z,43.94
2018-07-21T08:40:22.159Z,43.89
2018-07-21T08:42:51.986Z,43.33
2018-07-21T08:45:21.865Z,42.86
2018-07-21T08:47:51.717Z,43.34
2018-07-21T08:50:21.516Z,43.94
2018-07-21T08:52:51.436Z,43.18
2018-07-21T08:55:21.274Z,44.97
2018-07-21T08:57:51.168Z,43.68
2018-07-21T09:00:21.034Z,44.16
2018-07-21T09:02:50.964Z,44.19
2018-07-21T09:05:20.802Z,43.20
2018-07-21T09:07:50.685Z,42.77
2018-07-21T09:10:20.624Z,41.16
2018-07-21T09:12:50.475Z,41.85
2018-07-21T09:15:20.354Z,41.67
2018-07-21T09:17:50.160Z,41.47
2018-07-21T09:20:20.036Z,40.96
2018-07-21T09:22:49.944Z,40.84
2018-07-21T09:25:19.728Z,40.77
2018-07-21T09:27:49.625Z,41.81
2018-07-21T09:30:19.487Z,42.56
2018-07-21T09:32:49.302Z,41.07
2018-07-21T09:35:19.217Z,41.10
2018-07-21T09:37:49.165Z,42.44
2018-07-21T09:40:19.146Z,41.75
2018-07-21T09:42:49.056Z,41.06
2018-07-21T09:45:18.887Z,41.11
2018-07-21T09:47:48.730Z,39.75
2018-07-21T09:50:18.534Z,40.81
2018-07-21T09:52:48.323Z,41.23
2018-07-21T09:55:18.144Z,41.25
2018-07-21T09:57:47.907Z,40.27
2018-07-21T10:00:22.779Z,40.57
2018-07-21T10:02:52.684Z,42.32
2018-07-21T10:05:22.747Z,41.39
2018-07-21T10:07:52.498Z,40.10
2018-07-21T10:10:22.417Z,41.02
2018-07-21T10:12:52.264Z,40.75
2018-07-21T10:15:22.071Z,40.35
2018-07-21T10:17:51.918Z,40.48
2018-07-21T10:20:21.803Z,41.02
2018-07-21T10:22:51.604Z,40.80
2018-07-21T10:25:26.555Z,40.78
2018-07-21T10:28:01.560Z,40.04
2018-07-21T10:30:31.469Z,40.40
2018-07-21T10:33:01.429Z,40.57
2018-07-21T10:35:31.298Z,41.19
2018-07-21T10:38:01.214Z,41.94
2018-07-21T10:40:31.152Z,40.32
2018-07-21T10:43:00.939Z,40.63
2018-07-21T10:45:30.751Z,40.87
2018-07-21T10:48:00.587Z,39.84
2018-07-21T10:50:30.487Z,39.47
2018-07-21T10:53:00.364Z,39.89
2018-07-21T10:55:30.288Z,39.39
2018-07-21T10:58:00.195Z,39.28
2018-07-21T11:00:30.138Z,39.54
2018-07-21T11:02:59.927Z,38.95
2018-07-21T11:05:29.937Z,38.97
2018-07-21T11:07:59.773Z,38.34
2018-07-21T11:10:29.626Z,38.58
2018-07-21T11:12:59.500Z,39.16
2018-07-21T11:15:29.446Z,38.99
2018-07-21T11:17:59.406Z,38.99
2018-07-21T11:20:29.216Z,39.27
2018-07-21T11:22:59.135Z,38.56
2018-07-21T11:25:29.008Z,37.57
2018-07-21T11:27:58.892Z,37.93
2018-07-21T11:30:28.691Z,37.75
2018-07-21T11:32:58.411Z,39.21
2018-07-21T11:35:28.300Z,38.68
2018-07-21T11:37:58.068Z,37.97
2018-07-21T11:40:28.043Z,36.84
2018-07-21T11:42:57.961Z,38.89
2018-07-21T11:45:27.919Z,38.12
2018-07-21T11:47:57.816Z,37.90
2018-07-21T11:50:27.648Z,36.82
2018-07-21T11:52:57.648Z,37.67
2018-07-21T11:55:27.479Z,39.22
2018-07-21T11:57:57.280Z,37.45
2018-07-21T12:00:27.167Z,37.71
2018-07-21T12:02:57.053Z,38.58
2018-07-21T12:05:26.994Z,37.45
2018-07-21T12:07:56.959Z,37.02
2018-07-21T12:10:26.880Z,38.84
2018-07-21T12:12:56.756Z,37.12
2018-07-21T12:15:26.652Z,36.90
2018-07-21T12:17:56.523Z,37.34
2018-07-21T12:20:26.513Z,38.07
2018-07-21T12:22:56.390Z,38.20
2018-07-21T12:25:26.426Z,37.70
2018-07-21T12:27:56.359Z,37.57
2018-07-21T12:30:26.303Z,38.06
2018-07-21T12:32:56.205Z,38.43
2018-07-21T12:35:26.176Z,37.83
2018-07-21T12:37:55.960Z,38.34
2018-07-21T12:40:25.751Z,38.95
2018-07-21T12:42:55.617Z,39.42
2018-07-21T12:45:25.519Z,38.64
2018-07-21T12:47:55.431Z,39.05
2018-07-21T12:50:25.263Z,38.61
2018-07-21T12:52:55.141Z,39.14
2018-07-21T12:55:25.004Z,38.63
2018-07-21T12:57:54.892Z,39.15
2018-07-21T13:00:24.794Z,39.04
2018-07-21T13:02:54.651Z,39.05
2018-07-21T13:05:24.552Z,39.28
2018-07-21T13:07:54.444Z,39.24
2018-07-21T13:10:24.328Z,39.90
2018-07-21T13:12:54.224Z,39.60
2018-07-21T13:15:24.130Z,39.00
2018-07-21T13:17:54.034Z,38.47
2018-07-21T13:20:23.895Z,38.47
2018-07-21T13:22:53.847Z,37.31
2018-07-21T13:25:23.757Z,36.92
2018-07-21T13:27:53.626Z,37.06
2018-07-21T13:30:23.489Z,36.96
2018-07-21T13:32:53.352Z,35.86
2018-07-21T13:35:23.188Z,35.61
2018-07-21T13:37:53.068Z,35.16
2018-07-21T13:40:22.947Z,36.00
2018-07-21T13:42:52.841Z,36.93
2018-07-21T13:45:22.752Z,35.47
2018-07-21T13:47:52.599Z,35.91
2018-07-21T13:50:22.528Z,34.68
2018-07-21T13:52:52.299Z,35.35
2018-07-21T13:55:22.156Z,35.83
2018-07-21T13:57:52.016Z,36.60
2018-07-21T14:00:21.825Z,36.27
2018-07-21T14:02:51.726Z,37.23
2018-07-21T14:05:21.595Z,37.56
2018-07-21T14:07:51.552Z,38.02
2018-07-21T14:10:21.420Z,36.71
2018-07-21T14:12:51.409Z,37.27
2018-07-21T14:15:21.274Z,36.07
2018-07-21T14:17:51.291Z,36.50
2018-07-21T14:20:21.234Z,37.06
2018-07-21T14:22:51.091Z,37.71
2018-07-21T14:25:20.971Z,37.46
2018-07-21T14:27:50.687Z,37.02
2018-07-21T14:30:20.507Z,36.83
2018-07-21T14:32:50.355Z,36.54
2018-07-21T14:35:20.120Z,34.63
2018-07-21T14:37:49.963Z,37.06
2018-07-21T14:40:19.930Z,35.96
2018-07-21T14:42:49.775Z,37.03
2018-07-21T14:45:19.604Z,36.99
2018-07-21T14:47:50.020Z,37.12
2018-07-21T14:50:19.856Z,37.26
2018-07-21T14:52:49.787Z,36.70
2018-07-21T14:55:19.711Z,36.26
2018-07-21T14:57:49.644Z,36.79
2018-07-21T15:00:19.580Z,36.15
2018-07-21T15:02:50.041Z,37.46
2018-07-21T15:05:19.855Z,38.31
2018-07-21T15:07:49.691Z,37.53
2018-07-21T15:10:20.955Z,37.68
2018-07-21T15:12:51.827Z,37.64
2018-07-21T15:15:21.742Z,38.35
2018-07-21T15:17:52.023Z,38.80
2018-07-21T15:20:22.061Z,38.58
2018-07-21T15:22:51.859Z,38.51
2018-07-21T15:25:21.751Z,38.63
2018-07-21T15:27:51.734Z,39.27
2018-07-21T15:30:21.627Z,40.01
2018-07-21T15:32:51.439Z,39.97
2018-07-21T15:35:21.346Z,38.36
2018-07-21T15:37:51.245Z,38.22
2018-07-21T15:40:21.117Z,38.92
2018-07-21T15:42:50.903Z,38.23
2018-07-21T15:45:20.723Z,36.75
2018-07-21T15:47:50.659Z,38.53
2018-07-21T15:50:21.940Z,38.71
2018-07-21T15:52:51.947Z,39.16
2018-07-21T15:55:21.987Z,40.08
2018-07-21T15:57:51.835Z,40.86
2018-07-21T16:00:27.952Z,41.10
2018-07-21T16:02:58.926Z,40.25
2018-07-21T16:05:28.760Z,39.36
2018-07-21T16:07:58.547Z,39.98
2018-07-21T16:10:28.339Z,39.15
2018-07-21T16:12:58.311Z,39.48
2018-07-21T16:15:28.221Z,40.52
2018-07-21T16:17:58.247Z,39.64
2018-07-21T16:20:28.308Z,40.02
2018-07-21T16:22:58.355Z,41.56
2018-07-21T16:25:28.189Z,40.21
2018-07-21T16:27:58.410Z,41.85
2018-07-21T16:30:29.023Z,41.32
2018-07-21T16:32:59.719Z,41.25
2018-07-21T16:35:29.575Z,41.43
2018-07-21T16:37:59.515Z,41.67
2018-07-21T16:40:29.452Z,41.80
2018-07-21T16:42:59.291Z,41.67
2018-07-21T16:45:29.095Z,40.82
2018-07-21T16:47:59.106Z,41.85
2018-07-21T16:50:29.157Z,41.16
2018-07-21T16:53:00.116Z,41.75
2018-07-21T16:55:29.914Z,42.37
2018-07-21T16:57:59.703Z,42.17
2018-07-21T17:00:29.564Z,42.19
2018-07-21T17:02:59.437Z,41.07
2018-07-21T17:05:29.244Z,41.58
2018-07-21T17:07:59.075Z,41.57
2018-07-21T17:10:28.932Z,42.11
2018-07-21T17:12:58.809Z,42.03
2018-07-21T17:15:28.836Z,43.28
2018-07-21T17:17:59.004Z,42.67
2018-07-21T17:20:29.578Z,43.20
2018-07-21T17:22:59.313Z,43.21
2018-07-21T17:25:29.216Z,43.01
2018-07-21T17:27:59.109Z,43.64
2018-07-21T17:30:29.061Z,43.84
2018-07-21T17:32:59.193Z,43.80
2018-07-21T17:35:29.009Z,44.61
2018-07-21T17:37:58.809Z,45.76
2018-07-21T17:40:28.571Z,46.73
2018-07-21T17:42:59.568Z,48.33
2018-07-21T17:45:29.395Z,47.05
2018-07-21T17:47:59.308Z,48.21
2018-07-21T17:50:29.472Z,47.46
2018-07-21T17:52:59.410Z,47.48
2018-07-21T17:55:29.249Z,47.97
2018-07-21T17:57:59.027Z,48.77
2018-07-21T18:00:29.010Z,49.69
2018-07-21T18:02:59.811Z,50.15
2018-07-21T18:05:29.739Z,49.80
2018-07-21T18:07:59.710Z,49.81
2018-07-21T18:10:29.815Z,50.08
2018-07-21T18:12:59.775Z,51.65
2018-07-21T18:15:29.762Z,50.97
2018-07-21T18:17:59.608Z,49.00
2018-07-21T18:20:29.665Z,51.05
2018-07-21T18:22:59.435Z,50.07
2018-07-21T18:25:29.393Z,50.44
2018-07-21T18:27:59.277Z,50.09
2018-07-21T18:30:29.080Z,49.20
2018-07-21T18:32:59.171Z,49.90
2018-07-21T18:35:29.119Z,50.70
2018-07-21T18:37:58.847Z,50.11
2018-07-21T18:40:28.798Z,50.31
2018-07-21T18:42:58.625Z,50.63
2018-07-21T18:45:29.110Z,50.77
2018-07-21T18:47:58.946Z,52.04
2018-07-21T18:50:28.792Z,49.60
2018-07-21T18:52:58.580Z,50.78
2018-07-21T18:55:28.623Z,51.98
2018-07-21T18:57:58.669Z,51.78
2018-07-21T19:00:28.551Z,52.84
2018-07-21T19:02:58.460Z,49.40
2018-07-21T19:05:28.343Z,51.55
2018-07-21T19:07:58.179Z,51.90
2018-07-21T19:10:28.019Z,47.43
2018-07-21T19:12:57.811Z,51.13
2018-07-21T19:15:32.756Z,48.73
2018-07-21T19:18:02.611Z,50.44
2018-07-21T19:20:37.561Z,50.31
2018-07-21T19:23:07.403Z,51.10
2018-07-21T19:25:42.401Z,51.18
2018-07-21T19:28:12.215Z,50.64
2018-07-21T19:30:42.061Z,50.07
2018-07-21T19:33:12.048Z,50.71
2018-07-21T19:35:41.940Z,49.02
2018-07-21T19:38:11.872Z,47.64
2018-07-21T19:40:41.795Z,51.88
2018-07-21T19:43:11.842Z,49.93
2018-07-21T19:45:41.900Z,49.61
2018-07-21T19:48:12.072Z,49.19
2018-07-21T19:50:42.032Z,48.20
2018-07-21T19:53:11.947Z,48.49
2018-07-21T19:55:42.035Z,49.56
2018-07-21T19:58:11.968Z,49.51
2018-07-21T20:00:42.448Z,47.69
2018-07-21T20:03:12.259Z,48.28
2018-07-21T20:05:42.360Z,48.78
2018-07-21T20:08:12.324Z,50.09
2018-07-21T20:10:42.196Z,50.06
2018-07-21T20:13:11.976Z,50.09
2018-07-21T20:15:48.352Z,50.24
2018-07-21T20:18:18.107Z,49.92
2018-07-21T20:20:47.963Z,49.96
2018-07-21T20:23:17.763Z,51.25
2018-07-21T20:25:47.535Z,50.57
2018-07-21T20:28:17.406Z,50.39
2018-07-21T20:30:47.211Z,50.25
2018-07-21T20:33:17.015Z,51.10
2018-07-21T20:35:46.843Z,50.91
2018-07-21T20:38:16.732Z,51.03
2018-07-21T20:40:46.676Z,51.43
2018-07-21T20:43:16.723Z,51.95
2018-07-21T20:45:46.728Z,52.00
2018-07-21T20:48:16.648Z,52.26
2018-07-21T20:50:46.560Z,52.53
2018-07-21T20:53:16.491Z,51.93
2018-07-21T20:55:46.441Z,51.97
2018-07-21T20:58:16.388Z,52.18
2018-07-21T21:00:46.348Z,51.71
2018-07-21T21:03:16.189Z,51.50
2018-07-21T21:05:45.959Z,53.02
2018-07-21T21:08:15.894Z,53.03
2018-07-21T21:10:45.800Z,53.05
2018-07-21T21:13:15.995Z,53.94
2018-07-21T21:15:46.007Z,54.16
2018-07-21T21:18:15.887Z,53.51
2018-07-21T21:20:45.888Z,53.93
2018-07-21T21:23:15.863Z,55.46
2018-07-21T21:25:45.683Z,54.69
2018-07-21T21:28:15.493Z,55.05
2018-07-21T21:30:48.117Z,57.02
2018-07-21T21:33:18.076Z,57.26
2018-07-21T21:35:47.961Z,57.91
2018-07-21T21:38:17.933Z,57.94
2018-07-21T21:40:48.016Z,58.46
2018-07-21T21:43:18.335Z,58.98
2018-07-21T21:45:48.180Z,58.76
2018-07-21T21:48:18.158Z,59.01
2018-07-21T21:50:48.017Z,59.65
2018-07-21T21:53:17.771Z,60.02
2018-07-21T21:55:47.815Z,60.65
2018-07-21T21:58:17.659Z,60.06
2018-07-21T22:01:10.103Z,58.91
2018-07-21T22:03:39.962Z,59.79
2018-07-21T22:06:09.823Z,59.61
2018-07-21T22:08:39.832Z,60.28
2018-07-21T22:11:09.746Z,60.96
2018-07-21T22:13:39.760Z,60.50
2018-07-21T22:16:09.676Z,60.43
2018-07-21T22:18:39.424Z,60.01
2018-07-21T22:21:09.308Z,60.47
2018-07-21T22:23:39.148Z,61.17
2018-07-21T22:26:09.031Z,60.27
2018-07-21T22:28:39.041Z,60.28
2018-07-21T22:31:08.932Z,61.23
2018-07-21T22:33:38.843Z,61.38
2018-07-21T22:36:08.784Z,62.76
2018-07-21T22:38:38.607Z,60.13
2018-07-21T22:41:08.488Z,60.46
2018-07-21T22:43:38.364Z,60.56
2018-07-21T22:46:08.297Z,61.69
2018-07-21T22:48:38.259Z,61.36
2018-07-21T22:51:08.133Z,62.56
2018-07-21T22:53:38.070Z,60.81
2018-07-21T22:56:08.254Z,61.93
2018-07-21T22:58:38.226Z,61.61
2018-07-21T23:01:08.434Z,62.02
2018-07-21T23:03:38.663Z,61.04
2018-07-21T23:06:08.864Z,61.59
2018-07-21T23:08:38.848Z,60.77
2018-07-21T23:11:08.852Z,62.70
2018-07-21T23:13:38.832Z,61.89
2018-07-21T23:16:08.863Z,62.18
2018-07-21T23:18:38.980Z,62.15
2018-07-21T23:21:09.954Z,61.90
2018-07-21T23:23:39.927Z,62.79
2018-07-21T23:26:09.927Z,62.44
2018-07-21T23:28:39.815Z,61.83
2018-07-21T23:31:09.819Z,62.93
2018-07-21T23:33:39.784Z,63.16
2018-07-21T23:36:09.668Z,62.16
2018-07-21T23:38:39.716Z,62.68
2018-07-21T23:41:09.740Z,61.90
2018-07-21T23:43:39.759Z,62.13
2018-07-21T23:46:09.815Z,62.33
2018-07-21T23:48:39.747Z,62.59
2018-07-21T23:51:09.756Z,62.13
2018-07-21T23:53:39.696Z,62.69
2018-07-21T23:56:09.875Z,62.93
2018-07-21T23:58:39.744Z,62.29
